createdAt,value
2022-10-07T00:00:18.255Z,7.22
2022-10-07T00:02:51.636Z,7.90
2022-10-07T00:05:25.121Z,8.80
2022-10-07T00:07:58.517Z,8.80
2022-10-07T00:10:31.833Z,7.55
2022-10-07T00:13:05.324Z,8.18
2022-10-07T00:15:38.392Z,7.33
2022-10-07T00:18:12.029Z,6.70
2022-10-07T00:20:45.616Z,6.65
2022-10-07T00:23:19.094Z,7.10
2022-10-07T00:25:52.532Z,7.12
2022-10-07T00:28:27.745Z,7.97
2022-10-07T00:31:02.127Z,7.92
2022-10-07T00:33:39.598Z,6.85
2022-10-07T00:36:15.539Z,6.83
2022-10-07T00:38:52.560Z,5.28
2022-10-07T00:41:28.258Z,6.30
2022-10-07T00:44:02.333Z,7.03
2022-10-07T00:46:37.333Z,6.97
2022-10-07T00:49:13.559Z,6.95
2022-10-07T00:51:47.262Z,6.45
2022-10-07T00:54:22.380Z,6.72
2022-10-07T00:56:55.920Z,7.25
2022-10-07T00:59:29.234Z,6.42
2022-10-07T01:02:03.188Z,6.37
2022-10-07T01:04:37.226Z,6.37
2022-10-07T01:07:12.100Z,6.62
2022-10-07T01:09:48.434Z,7.28
2022-10-07T01:12:27.108Z,6.72
2022-10-07T01:15:04.010Z,6.28
2022-10-07T01:17:40.665Z,5.10
2022-10-07T01:20:27.259Z,6.12
2022-10-07T01:23:22.268Z,6.00
2022-10-07T01:26:25.256Z,5.58
2022-10-07T01:29:01.962Z,5.70
2022-10-07T01:31:38.692Z,6.28
2022-10-07T01:34:14.870Z,6.20
2022-10-07T01:36:51.110Z,7.30
2022-10-07T01:39:27.746Z,6.97
2022-10-07T01:42:01.185Z,7.12
2022-10-07T01:44:35.113Z,6.05
2022-10-07T01:47:08.514Z,6.62
2022-10-07T01:49:41.918Z,7.50
2022-10-07T01:52:24.232Z,7.00
2022-10-07T01:55:27.150Z,7.10
2022-10-07T01:58:06.368Z,6.85
2022-10-07T02:00:43.237Z,6.55
2022-10-07T02:06:13.614Z,7.65
2022-10-07T02:08:50.164Z,7.12
2022-10-07T02:11:27.474Z,7.83
2022-10-07T02:14:07.955Z,6.78
2022-10-07T02:16:46.696Z,5.55
2022-10-07T02:19:23.291Z,5.47
2022-10-07T02:21:59.545Z,6.70
2022-10-07T02:24:36.483Z,6.60
2022-10-07T02:27:14.247Z,6.08
2022-10-07T02:32:25.555Z,5.15
2022-10-07T02:35:03.386Z,6.42
2022-10-07T02:37:39.664Z,5.90
2022-10-07T02:40:13.267Z,6.22
2022-10-07T02:42:51.906Z,6.67
2022-10-07T02:45:29.527Z,6.17
2022-10-07T02:48:05.850Z,6.95
2022-10-07T02:50:42.554Z,5.85
2022-10-07T02:53:17.537Z,5.63
2022-10-07T02:55:53.629Z,6.42
2022-10-07T02:58:28.417Z,4.87
2022-10-07T03:01:04.318Z,5.55
2022-10-07T03:03:37.737Z,5.65
2022-10-07T03:06:12.797Z,4.72
2022-10-07T03:08:48.078Z,5.62
2022-10-07T03:11:21.490Z,5.90
2022-10-07T03:13:54.984Z,6.15
2022-10-07T03:16:28.254Z,5.17
2022-10-07T03:19:01.767Z,4.70
2022-10-07T03:21:36.529Z,4.10
2022-10-07T03:24:09.988Z,5.03
2022-10-07T03:26:44.859Z,5.22
2022-10-07T03:29:19.918Z,4.03
2022-10-07T03:31:54.876Z,5.42
2022-10-07T03:34:28.690Z,3.62
2022-10-07T03:37:02.364Z,4.50
2022-10-07T03:39:35.965Z,3.70
2022-10-07T03:42:09.880Z,4.05
2022-10-07T03:44:43.865Z,4.67
2022-10-07T03:47:17.795Z,4.33
2022-10-07T03:49:52.101Z,3.62
2022-10-07T03:52:25.191Z,4.17
2022-10-07T03:54:58.770Z,3.42
2022-10-07T03:57:50.033Z,5.58
2022-10-07T04:00:24.987Z,3.72
2022-10-07T04:02:59.177Z,3.85
2022-10-07T04:05:32.806Z,4.33
2022-10-07T04:08:06.954Z,4.00
2022-10-07T04:10:40.426Z,3.72
2022-10-07T04:13:13.598Z,4.00
2022-10-07T04:15:46.977Z,3.33
2022-10-07T04:18:20.474Z,4.12
2022-10-07T04:20:55.167Z,3.98
2022-10-07T04:23:28.566Z,3.70
2022-10-07T04:26:02.008Z,3.05
2022-10-07T04:28:35.642Z,3.55
2022-10-07T04:31:14.074Z,5.28
2022-10-07T04:33:49.092Z,4.00
2022-10-07T04:36:25.416Z,4.03
2022-10-07T04:39:13.489Z,3.75
2022-10-07T04:41:48.727Z,3.37
2022-10-07T04:44:23.919Z,3.42
2022-10-07T04:47:02.398Z,2.67
2022-10-07T04:49:35.980Z,3.45
2022-10-07T04:52:13.893Z,3.25
2022-10-07T04:54:47.587Z,3.55
2022-10-07T04:57:21.427Z,3.08
2022-10-07T04:59:55.208Z,3.80
2022-10-07T05:02:28.721Z,2.25
2022-10-07T05:05:02.326Z,2.75
2022-10-07T05:07:35.744Z,2.55
2022-10-07T05:10:11.325Z,2.30
2022-10-07T05:12:45.272Z,4.05
2022-10-07T05:15:18.980Z,2.17
2022-10-07T05:17:54.493Z,2.20
2022-10-07T05:20:29.248Z,1.32
2022-10-07T05:23:03.059Z,2.17
2022-10-07T05:25:36.562Z,2.12
2022-10-07T05:28:09.990Z,2.50
2022-10-07T05:30:44.669Z,3.22
2022-10-07T05:33:19.262Z,2.30
2022-10-07T05:35:52.987Z,2.62
2022-10-07T05:38:26.297Z,2.08
2022-10-07T05:41:01.256Z,2.50
2022-10-07T05:43:38.105Z,2.58
2022-10-07T05:46:14.487Z,2.58
2022-10-07T05:48:51.273Z,3.27
2022-10-07T05:51:26.316Z,2.27
2022-10-07T05:54:01.532Z,2.92
2022-10-07T05:56:37.467Z,3.87
2022-10-07T05:59:11.997Z,2.87
2022-10-07T06:01:46.869Z,2.02
2022-10-07T06:04:22.385Z,2.40
2022-10-07T06:06:57.463Z,1.92
2022-10-07T06:09:49.102Z,3.00
2022-10-07T06:12:41.244Z,1.52
2022-10-07T06:15:16.693Z,2.02
2022-10-07T06:17:52.080Z,1.42
2022-10-07T06:20:25.492Z,1.82
2022-10-07T06:22:59.099Z,2.72
2022-10-07T06:25:32.742Z,1.35
2022-10-07T06:28:06.296Z,2.52
2022-10-07T06:30:42.240Z,1.02
2022-10-07T06:33:16.125Z,1.55
2022-10-07T06:35:50.597Z,1.70
2022-10-07T06:38:24.007Z,1.62
2022-10-07T06:41:01.568Z,1.27
2022-10-07T06:43:37.482Z,1.60
2022-10-07T06:46:15.224Z,1.87
2022-10-07T06:48:50.643Z,2.35
2022-10-07T06:51:25.301Z,1.22
2022-10-07T06:53:59.320Z,2.08
2022-10-07T06:56:32.971Z,1.77
2022-10-07T06:59:06.564Z,1.27
2022-10-07T07:01:41.797Z,1.42
2022-10-07T07:04:15.448Z,1.17
2022-10-07T07:06:48.834Z,1.32
2022-10-07T07:09:22.991Z,1.62
2022-10-07T07:11:57.880Z,1.62
2022-10-07T07:14:35.048Z,1.45
2022-10-07T07:17:10.241Z,1.80
2022-10-07T07:19:43.795Z,0.95
2022-10-07T07:22:17.018Z,1.20
2022-10-07T07:24:50.918Z,1.42
2022-10-07T07:27:24.418Z,1.82
2022-10-07T07:29:58.822Z,1.20
2022-10-07T07:32:33.834Z,1.02
2022-10-07T07:35:09.249Z,0.95
2022-10-07T07:37:43.145Z,1.32
2022-10-07T07:40:17.106Z,1.45
2022-10-07T07:42:50.826Z,1.30
2022-10-07T07:45:24.849Z,2.08
2022-10-07T07:47:58.355Z,1.10
2022-10-07T07:50:32.201Z,2.10
2022-10-07T07:53:06.496Z,1.30
2022-10-07T07:55:40.283Z,1.80
2022-10-07T07:58:13.868Z,0.65
2022-10-07T08:00:47.431Z,1.70
2022-10-07T08:03:21.224Z,1.22
2022-10-07T08:05:55.011Z,2.10
2022-10-07T08:08:28.660Z,1.60
2022-10-07T08:11:09.248Z,1.45
2022-10-07T08:13:43.714Z,1.80
2022-10-07T08:16:20.036Z,1.37
2022-10-07T08:18:55.581Z,0.82
2022-10-07T08:21:33.089Z,1.10
2022-10-07T08:24:10.044Z,0.95
2022-10-07T08:26:44.049Z,1.60
2022-10-07T08:29:19.052Z,1.10
2022-10-07T08:31:52.490Z,1.30
2022-10-07T08:34:27.066Z,1.95
2022-10-07T08:37:00.739Z,1.22
2022-10-07T08:39:34.223Z,0.98
2022-10-07T08:42:13.014Z,1.17
2022-10-07T08:44:49.019Z,1.92
2022-10-07T08:47:25.656Z,0.82
2022-10-07T08:50:04.808Z,1.30
2022-10-07T08:52:44.555Z,1.40
2022-10-07T08:55:25.589Z,1.30
2022-10-07T09:01:32.352Z,1.10
2022-10-07T09:04:12.464Z,1.00
2022-10-07T09:06:50.461Z,1.27
2022-10-07T09:09:27.634Z,1.00
2022-10-07T09:12:04.398Z,1.65
2022-10-07T09:14:40.236Z,1.00
2022-10-07T09:17:17.101Z,1.10
2022-10-07T09:19:54.660Z,0.95
2022-10-07T09:22:31.609Z,0.93
2022-10-07T09:25:19.856Z,1.50
2022-10-07T09:27:54.563Z,0.93
2022-10-07T09:30:29.644Z,1.10
2022-10-07T09:33:04.419Z,1.20
2022-10-07T09:35:38.448Z,1.15
2022-10-07T09:38:11.657Z,1.70
2022-10-07T09:41:06.317Z,0.72
2022-10-07T09:43:41.646Z,0.85
2022-10-07T09:46:18.040Z,1.40
2022-10-07T09:48:55.670Z,0.70
2022-10-07T09:54:02.942Z,1.92
2022-10-07T09:56:39.504Z,1.20
2022-10-07T09:59:24.701Z,1.30
2022-10-07T10:01:59.843Z,0.80
2022-10-07T10:04:36.938Z,0.72
2022-10-07T10:07:19.906Z,1.57
2022-10-07T10:09:55.217Z,1.37
2022-10-07T10:12:29.318Z,1.02
2022-10-07T10:15:03.382Z,1.12
2022-10-07T10:17:41.664Z,1.00
2022-10-07T10:20:38.619Z,0.70
2022-10-07T10:23:29.386Z,1.47
2022-10-07T10:28:56.133Z,2.20
2022-10-07T10:31:33.902Z,0.73
2022-10-07T10:34:12.308Z,0.65
2022-10-07T10:36:48.264Z,1.10
2022-10-07T10:39:25.760Z,1.60
2022-10-07T10:42:01.940Z,0.88
2022-10-07T10:44:42.924Z,1.10
2022-10-07T10:47:19.658Z,1.27
2022-10-07T10:49:56.620Z,1.50
2022-10-07T10:52:45.806Z,1.20
2022-10-07T10:55:34.397Z,1.42
2022-10-07T10:58:16.061Z,1.98
2022-10-07T11:00:59.447Z,1.60
2022-10-07T11:03:36.314Z,1.22
2022-10-07T11:06:14.886Z,0.88
2022-10-07T11:08:50.363Z,1.15
2022-10-07T11:11:25.674Z,0.65
2022-10-07T11:14:02.075Z,1.15
2022-10-07T11:16:38.829Z,0.93
2022-10-07T11:19:16.562Z,0.93
2022-10-07T11:24:26.823Z,1.32
2022-10-07T11:27:03.322Z,0.70
2022-10-07T11:29:40.069Z,1.00
2022-10-07T11:32:17.472Z,1.30
2022-10-07T11:34:54.803Z,0.75
2022-10-07T11:37:31.594Z,1.17
2022-10-07T11:40:07.582Z,1.50
2022-10-07T11:42:46.036Z,1.70
2022-10-07T11:45:23.097Z,1.32
2022-10-07T11:47:59.516Z,1.25
2022-10-07T11:50:35.779Z,1.47
2022-10-07T11:53:11.671Z,1.20
2022-10-07T11:55:51.577Z,1.30
2022-10-07T11:58:29.400Z,1.30
2022-10-07T12:01:34.817Z,1.10
2022-10-07T12:04:46.188Z,1.02
2022-10-07T12:07:41.192Z,1.85
2022-10-07T12:13:46.514Z,1.62
2022-10-07T12:16:45.051Z,2.47
2022-10-07T12:19:23.486Z,1.60
2022-10-07T12:22:21.638Z,1.35
2022-10-07T12:25:38.320Z,0.85
2022-10-07T12:28:19.021Z,1.25
2022-10-07T12:30:54.927Z,2.52
2022-10-07T12:33:32.197Z,1.17
2022-10-07T12:36:27.960Z,0.80
2022-10-07T12:39:35.464Z,1.70
2022-10-07T12:42:14.118Z,1.22
2022-10-07T12:44:51.403Z,1.35
2022-10-07T12:47:28.282Z,1.47
2022-10-07T12:50:04.922Z,1.00
2022-10-07T12:52:41.307Z,1.57
2022-10-07T12:55:19.533Z,1.45
2022-10-07T12:57:57.604Z,1.50
2022-10-07T13:00:32.858Z,1.60
2022-10-07T13:03:34.664Z,1.60
2022-10-07T13:06:39.579Z,0.70
2022-10-07T13:09:34.310Z,1.62
2022-10-07T13:12:23.266Z,0.80
2022-10-07T13:15:07.306Z,1.60
2022-10-07T13:17:47.540Z,1.52
2022-10-07T13:20:36.831Z,1.75
2022-10-07T13:23:20.906Z,1.55
2022-10-07T13:25:56.580Z,1.45
2022-10-07T13:28:34.227Z,1.50
2022-10-07T13:31:21.324Z,0.88
2022-10-07T13:33:56.126Z,0.60
2022-10-07T13:36:32.595Z,1.85
2022-10-07T13:39:21.822Z,2.05
2022-10-07T13:41:58.271Z,1.22
2022-10-07T13:44:33.357Z,1.72
2022-10-07T13:47:10.284Z,1.30
2022-10-07T13:49:47.211Z,1.40
2022-10-07T13:52:24.140Z,1.27
2022-10-07T13:54:57.665Z,1.57
2022-10-07T13:57:35.265Z,2.50
2022-10-07T14:00:12.773Z,2.35
2022-10-07T14:02:47.082Z,1.47
2022-10-07T14:05:24.057Z,2.20
2022-10-07T14:07:59.184Z,1.62
2022-10-07T14:10:34.851Z,1.80
2022-10-07T14:13:09.783Z,1.65
2022-10-07T14:18:27.681Z,1.70
2022-10-07T14:21:13.072Z,2.08
2022-10-07T14:23:48.391Z,1.47
2022-10-07T14:26:21.917Z,2.33
2022-10-07T14:28:55.182Z,1.12
2022-10-07T14:31:46.734Z,2.08
2022-10-07T14:34:38.908Z,1.62
2022-10-07T14:37:15.855Z,1.20
2022-10-07T14:39:50.849Z,1.70
2022-10-07T14:42:26.334Z,2.22
2022-10-07T14:45:01.743Z,1.45
2022-10-07T14:47:37.015Z,1.70
2022-10-07T14:50:13.013Z,2.12
2022-10-07T14:52:49.427Z,1.60
2022-10-07T14:55:25.956Z,2.12
2022-10-07T14:57:59.236Z,2.30
2022-10-07T15:00:38.710Z,2.22
2022-10-07T15:03:08.728Z,2.05
2022-10-07T15:05:42.305Z,1.45
2022-10-07T15:08:16.158Z,1.98
2022-10-07T15:10:49.532Z,1.62
2022-10-07T15:13:23.217Z,2.92
2022-10-07T15:15:56.734Z,3.17
2022-10-07T15:18:30.401Z,1.98
2022-10-07T15:21:04.261Z,2.35
2022-10-07T15:23:37.618Z,2.75
2022-10-07T15:26:12.110Z,2.58
2022-10-07T15:28:45.295Z,2.12
2022-10-07T15:31:19.140Z,1.72
2022-10-07T15:33:54.432Z,1.98
2022-10-07T15:36:29.526Z,1.15
2022-10-07T15:39:03.338Z,2.67
2022-10-07T15:41:39.213Z,2.12
2022-10-07T15:44:16.281Z,1.77
2022-10-07T15:46:51.311Z,2.15
2022-10-07T15:49:24.336Z,2.17
2022-10-07T15:51:57.931Z,2.02
2022-10-07T15:54:32.053Z,1.62
2022-10-07T15:57:05.896Z,2.40
2022-10-07T15:59:39.434Z,1.45
2022-10-07T16:02:16.160Z,2.15
2022-10-07T16:04:49.802Z,2.20
2022-10-07T16:07:24.123Z,2.35
2022-10-07T16:09:57.648Z,1.75
2022-10-07T16:12:31.141Z,1.25
2022-10-07T16:15:06.504Z,2.05
2022-10-07T16:17:40.131Z,2.08
2022-10-07T16:20:15.528Z,1.75
2022-10-07T16:22:49.001Z,2.30
2022-10-07T16:25:22.427Z,1.25
2022-10-07T16:28:13.230Z,1.77
2022-10-07T16:30:48.949Z,1.77
2022-10-07T16:33:22.762Z,2.37
2022-10-07T16:35:56.264Z,1.92
2022-10-07T16:38:29.863Z,1.67
2022-10-07T16:41:03.487Z,2.10
2022-10-07T16:43:36.766Z,1.35
2022-10-07T16:46:14.050Z,2.92
2022-10-07T16:48:48.817Z,1.85
2022-10-07T16:51:24.232Z,2.05
2022-10-07T16:54:01.667Z,1.65
2022-10-07T16:56:37.099Z,1.72
2022-10-07T16:59:12.203Z,2.37
2022-10-07T17:01:45.721Z,2.10
2022-10-07T17:04:19.778Z,1.95
2022-10-07T17:06:53.221Z,2.12
2022-10-07T17:09:26.710Z,2.40
2022-10-07T17:12:00.162Z,2.22
2022-10-07T17:14:34.195Z,2.40
2022-10-07T17:17:08.026Z,1.77
2022-10-07T17:19:41.594Z,1.80
2022-10-07T17:22:15.303Z,2.22
2022-10-07T17:24:48.814Z,1.82
2022-10-07T17:27:22.493Z,2.02
2022-10-07T17:29:55.998Z,1.92
2022-10-07T17:32:29.583Z,1.85
2022-10-07T17:35:03.144Z,1.77
2022-10-07T17:37:36.539Z,2.90
2022-10-07T17:40:11.867Z,1.77
2022-10-07T17:42:45.643Z,2.00
2022-10-07T17:45:19.137Z,2.05
2022-10-07T17:47:53.434Z,2.42
2022-10-07T17:50:26.807Z,2.08
2022-10-07T17:53:00.913Z,2.65
2022-10-07T17:55:34.501Z,2.45
2022-10-07T17:58:12.933Z,2.35
2022-10-07T18:00:47.539Z,2.60
2022-10-07T18:03:24.390Z,2.42
2022-10-07T18:05:58.392Z,2.40
2022-10-07T18:08:33.341Z,3.05
2022-10-07T18:11:11.484Z,2.55
2022-10-07T18:14:04.892Z,2.80
2022-10-07T18:16:39.830Z,2.67
2022-10-07T18:19:19.516Z,2.80
2022-10-07T18:21:53.115Z,3.33
2022-10-07T18:24:29.950Z,2.67
2022-10-07T18:27:06.783Z,2.70
2022-10-07T18:29:50.524Z,3.35
2022-10-07T18:32:24.659Z,3.42
2022-10-07T18:34:59.034Z,2.67
2022-10-07T18:40:28.931Z,2.20
2022-10-07T18:43:06.965Z,3.45
2022-10-07T18:45:59.013Z,4.42
